createdAt,value
2022-11-04T00:02:17.799Z,12.25
2022-11-04T00:04:47.613Z,12.82
2022-11-04T00:07:33.419Z,11.77
2022-11-04T00:10:02.160Z,9.60
2022-11-04T00:12:30.530Z,8.20
2022-11-04T00:15:19.189Z,8.35
2022-11-04T00:17:46.522Z,8.98
2022-11-04T00:20:34.186Z,6.95
2022-11-04T00:23:20.029Z,8.75
2022-11-04T00:26:09.462Z,7.57
2022-11-04T00:28:43.830Z,6.15
2022-11-04T00:31:30.417Z,8.20
2022-11-04T00:34:00.269Z,5.57
2022-11-04T00:36:30.839Z,6.78
2022-11-04T00:38:59.483Z,4.50
2022-11-04T00:41:28.546Z,7.00
2022-11-04T00:43:58.315Z,5.63
2022-11-04T00:46:27.973Z,4.87
2022-11-04T00:48:56.569Z,7.95
2022-11-04T00:51:24.867Z,4.68
2022-11-04T00:53:55.038Z,4.93
2022-11-04T00:56:23.422Z,5.72
2022-11-04T00:58:51.956Z,5.78
2022-11-04T01:01:21.501Z,3.97
2022-11-04T01:03:52.667Z,4.88
2022-11-04T01:06:24.490Z,5.63
2022-11-04T01:08:58.873Z,5.57
2022-11-04T01:11:28.283Z,4.25
2022-11-04T01:13:57.355Z,4.80
2022-11-04T01:19:01.470Z,4.88
2022-11-04T01:21:29.891Z,5.30
2022-11-04T01:24:01.462Z,5.80
2022-11-04T01:26:30.720Z,4.50
2022-11-04T01:29:00.145Z,4.30
2022-11-04T01:31:30.676Z,4.07
2022-11-04T01:33:59.992Z,5.57
2022-11-04T01:36:29.123Z,4.20
2022-11-04T01:38:59.399Z,5.97
2022-11-04T01:41:30.041Z,4.97
2022-11-04T01:44:00.235Z,4.80
2022-11-04T01:46:42.657Z,4.70
2022-11-04T01:49:23.204Z,4.88
2022-11-04T01:51:54.971Z,4.20
2022-11-04T01:54:25.040Z,3.67
2022-11-04T01:56:55.112Z,3.40
2022-11-04T01:59:29.562Z,3.57
2022-11-04T02:01:58.393Z,3.30
2022-11-04T02:04:26.850Z,3.40
2022-11-04T02:06:58.162Z,4.40
2022-11-04T02:09:30.796Z,4.00
2022-11-04T02:12:17.122Z,2.83
2022-11-04T02:14:47.751Z,3.40
2022-11-04T02:17:28.510Z,2.88
2022-11-04T02:20:10.607Z,2.90
2022-11-04T02:23:19.549Z,3.38
2022-11-04T02:26:23.484Z,3.05
2022-11-04T02:29:13.432Z,3.05
2022-11-04T02:31:49.789Z,3.15
2022-11-04T02:34:22.976Z,3.38
2022-11-04T02:36:56.415Z,3.25
2022-11-04T02:39:36.886Z,2.80
2022-11-04T02:42:12.456Z,2.67
2022-11-04T02:44:49.869Z,2.90
2022-11-04T02:47:22.991Z,2.70
2022-11-04T02:49:56.713Z,3.13
2022-11-04T02:52:31.928Z,2.80
2022-11-04T02:55:04.453Z,2.67
2022-11-04T02:57:36.975Z,2.65
2022-11-04T03:00:09.384Z,2.60
2022-11-04T03:02:42.656Z,2.88
2022-11-04T03:05:16.319Z,2.42
2022-11-04T03:07:47.820Z,2.92
2022-11-04T03:10:20.077Z,2.70
2022-11-04T03:12:52.777Z,3.03
2022-11-04T03:15:29.349Z,3.00
2022-11-04T03:18:05.659Z,2.72
2022-11-04T03:20:37.791Z,2.70
2022-11-04T03:23:06.255Z,2.80
2022-11-04T03:25:40.697Z,2.60
2022-11-04T03:28:21.699Z,2.80
2022-11-04T03:30:56.887Z,2.92
2022-11-04T03:33:34.905Z,2.85
2022-11-04T03:36:04.652Z,2.92
2022-11-04T03:38:33.322Z,2.78
2022-11-04T03:41:03.452Z,2.50
2022-11-04T03:43:33.665Z,2.90
2022-11-04T03:46:04.267Z,3.00
2022-11-04T03:48:33.010Z,2.80
2022-11-04T03:51:02.394Z,2.60
2022-11-04T03:53:31.617Z,2.63
2022-11-04T03:56:13.711Z,2.63
2022-11-04T03:58:51.478Z,2.80
2022-11-04T04:01:29.249Z,2.40
2022-11-04T04:04:04.425Z,2.40
2022-11-04T04:06:35.924Z,2.80
2022-11-04T04:09:12.543Z,2.78
2022-11-04T04:11:46.745Z,2.63
2022-11-04T04:14:36.096Z,2.67
2022-11-04T04:19:47.186Z,2.80
2022-11-04T04:22:19.366Z,2.80
2022-11-04T04:25:08.529Z,2.85
2022-11-04T04:27:38.006Z,2.60
2022-11-04T04:30:09.216Z,2.90
2022-11-04T04:32:42.888Z,2.90
2022-11-04T04:35:29.503Z,3.05
2022-11-04T04:38:20.789Z,3.03
2022-11-04T04:41:12.499Z,2.83
2022-11-04T04:44:01.271Z,2.90
2022-11-04T04:46:32.549Z,2.88
2022-11-04T04:49:06.981Z,7.00
2022-11-04T04:51:39.947Z,4.03
2022-11-04T04:54:09.037Z,3.45
2022-11-04T04:56:37.700Z,3.10
2022-11-04T04:59:06.248Z,3.00
2022-11-04T05:01:34.954Z,3.20
2022-11-04T05:04:03.903Z,2.75
2022-11-04T05:06:33.578Z,3.38
2022-11-04T05:09:02.427Z,3.00
2022-11-04T05:11:30.936Z,4.53
2022-11-04T05:14:01.464Z,3.75
2022-11-04T05:18:58.714Z,3.40
2022-11-04T05:21:26.970Z,3.25
2022-11-04T05:23:56.876Z,3.63
2022-11-04T05:26:25.078Z,3.60
2022-11-04T05:28:53.664Z,3.15
2022-11-04T05:31:22.557Z,3.25
2022-11-04T05:33:50.890Z,3.25
2022-11-04T05:36:19.673Z,3.50
2022-11-04T05:38:52.144Z,3.72
2022-11-04T05:41:26.905Z,3.40
2022-11-04T05:43:56.045Z,4.28
2022-11-04T05:46:25.785Z,3.97
2022-11-04T05:48:54.454Z,3.67
2022-11-04T05:51:25.543Z,3.35
2022-11-04T05:53:57.253Z,3.17
2022-11-04T05:56:27.325Z,3.35
2022-11-04T05:58:55.587Z,3.60
2022-11-04T06:01:32.776Z,4.53
2022-11-04T06:04:01.909Z,3.63
2022-11-04T06:06:32.230Z,4.13
2022-11-04T06:09:01.551Z,6.05
2022-11-04T06:11:32.422Z,6.95
2022-11-04T06:14:02.804Z,7.40
2022-11-04T06:16:31.247Z,8.88
2022-11-04T06:19:05.127Z,4.82
2022-11-04T06:21:36.935Z,6.28
2022-11-04T06:24:05.888Z,3.63
2022-11-04T06:26:35.749Z,5.07
2022-11-04T06:29:04.179Z,5.23
2022-11-04T06:31:32.799Z,8.63
2022-11-04T06:34:01.117Z,7.10
2022-11-04T06:36:29.405Z,3.50
2022-11-04T06:39:03.022Z,3.47
2022-11-04T06:41:33.291Z,3.72
2022-11-04T06:44:02.921Z,6.13
2022-11-04T06:46:36.259Z,3.40
2022-11-04T06:49:05.015Z,3.50
2022-11-04T06:51:34.778Z,3.53
2022-11-04T06:54:03.185Z,18.73
2022-11-04T06:56:32.417Z,19.25
2022-11-04T06:59:02.222Z,4.18
2022-11-04T07:01:33.988Z,3.78
2022-11-04T07:04:05.296Z,4.22
2022-11-04T07:06:36.255Z,3.97
2022-11-04T07:09:06.814Z,4.13
2022-11-04T07:11:35.313Z,3.85
2022-11-04T07:14:05.336Z,3.40
2022-11-04T07:16:33.904Z,4.15
2022-11-04T07:19:02.534Z,3.88
2022-11-04T07:21:31.007Z,4.13
2022-11-04T07:23:59.963Z,5.60
2022-11-04T07:26:28.330Z,7.05
2022-11-04T07:29:00.945Z,4.28
2022-11-04T07:31:30.843Z,4.30
2022-11-04T07:34:00.062Z,5.72
2022-11-04T07:36:28.371Z,3.92
2022-11-04T07:41:27.267Z,3.95
2022-11-04T07:43:58.860Z,3.63
2022-11-04T07:46:27.498Z,4.28
2022-11-04T07:49:00.260Z,5.25
2022-11-04T07:51:28.715Z,4.00
2022-11-04T07:53:57.266Z,5.10
2022-11-04T07:56:25.974Z,5.03
2022-11-04T07:58:54.491Z,4.00
2022-11-04T08:01:24.921Z,5.07
2022-11-04T08:03:53.875Z,3.67
2022-11-04T08:06:23.709Z,4.78
2022-11-04T08:08:54.022Z,4.10
2022-11-04T08:11:25.203Z,5.35
2022-11-04T08:13:53.582Z,4.60
2022-11-04T08:16:23.661Z,3.95
2022-11-04T08:18:53.345Z,4.18
2022-11-04T08:21:24.210Z,6.03
2022-11-04T08:26:23.551Z,4.53
2022-11-04T08:28:52.802Z,3.20
2022-11-04T08:31:24.463Z,3.40
2022-11-04T08:33:54.066Z,3.97
2022-11-04T08:36:26.123Z,3.60
2022-11-04T08:38:55.427Z,3.70
2022-11-04T08:41:26.993Z,3.83
2022-11-04T08:43:56.879Z,3.65
2022-11-04T08:46:25.383Z,3.83
2022-11-04T08:48:54.232Z,3.72
2022-11-04T08:51:26.578Z,8.40
2022-11-04T08:53:55.949Z,3.75
2022-11-04T08:56:26.574Z,3.50
2022-11-04T09:01:28.053Z,9.67
2022-11-04T09:03:59.192Z,6.60
2022-11-04T09:06:31.219Z,4.05
2022-11-04T09:09:03.899Z,3.90
2022-11-04T09:11:34.643Z,5.38
2022-11-04T09:14:04.076Z,3.95
2022-11-04T09:16:34.759Z,12.87
2022-11-04T09:19:25.870Z,3.83
2022-11-04T09:21:56.142Z,3.60
2022-11-04T09:24:24.681Z,3.95
2022-11-04T09:26:53.157Z,3.88
2022-11-04T09:29:22.276Z,4.57
2022-11-04T09:31:51.670Z,3.60
2022-11-04T09:34:20.485Z,3.90
2022-11-04T09:36:49.087Z,3.90
2022-11-04T09:39:20.185Z,4.00
2022-11-04T09:42:06.317Z,4.97
2022-11-04T09:45:07.325Z,4.85
2022-11-04T09:47:36.430Z,5.03
2022-11-04T09:52:40.928Z,4.18
2022-11-04T09:55:19.392Z,3.70
2022-11-04T09:57:55.227Z,3.58
2022-11-04T10:00:23.811Z,4.88
2022-11-04T10:03:06.152Z,3.90
2022-11-04T10:05:53.231Z,7.68
2022-11-04T10:08:49.665Z,3.72
2022-11-04T10:11:28.094Z,5.80
2022-11-04T10:14:11.471Z,3.38
2022-11-04T10:16:52.378Z,4.70
2022-11-04T10:19:35.076Z,6.80
2022-11-04T10:22:05.906Z,5.88
2022-11-04T10:24:43.581Z,4.32
2022-11-04T10:27:18.125Z,4.60
2022-11-04T10:29:50.324Z,7.68
2022-11-04T10:32:23.276Z,3.63
2022-11-04T10:35:23.760Z,4.68
2022-11-04T10:37:54.533Z,5.25
2022-11-04T10:40:26.800Z,5.35
2022-11-04T10:43:00.079Z,4.95
2022-11-04T10:45:35.707Z,3.85
2022-11-04T10:48:09.818Z,3.78
2022-11-04T10:50:43.382Z,4.00
2022-11-04T10:53:19.106Z,3.90
2022-11-04T10:55:53.133Z,7.00
2022-11-04T10:58:28.483Z,8.88
2022-11-04T11:00:57.822Z,8.23
2022-11-04T11:03:32.572Z,5.43
2022-11-04T11:06:24.908Z,4.18
2022-11-04T11:08:56.127Z,5.32
2022-11-04T11:11:39.857Z,4.60
2022-11-04T11:14:19.393Z,4.75
2022-11-04T11:16:48.243Z,4.00
2022-11-04T11:19:20.601Z,7.68
2022-11-04T11:21:50.273Z,4.18
2022-11-04T11:24:22.770Z,4.60
2022-11-04T11:26:53.163Z,5.00
2022-11-04T11:29:26.164Z,11.98
2022-11-04T11:31:55.745Z,4.45
2022-11-04T11:34:27.661Z,6.82
2022-11-04T11:36:57.313Z,4.80
2022-11-04T11:39:28.728Z,4.40
2022-11-04T11:42:00.459Z,4.75
2022-11-04T11:44:33.261Z,4.72
2022-11-04T11:47:03.820Z,4.10
2022-11-04T11:49:35.948Z,5.38
2022-11-04T11:52:31.839Z,5.38
2022-11-04T11:55:06.899Z,3.80
2022-11-04T11:57:45.186Z,4.05
2022-11-04T12:03:16.169Z,3.80
2022-11-04T12:14:28.391Z,6.22
2022-11-04T12:17:05.465Z,4.95
2022-11-04T12:19:47.251Z,5.80
2022-11-04T12:22:27.480Z,7.95
2022-11-04T12:27:48.003Z,4.70
2022-11-04T12:30:26.079Z,4.65
2022-11-04T12:33:18.862Z,8.00
2022-11-04T12:36:01.249Z,6.60
2022-11-04T12:41:46.721Z,6.80
2022-11-04T12:44:29.558Z,4.03
2022-11-04T12:47:11.943Z,5.63
2022-11-04T12:50:10.475Z,4.53
2022-11-04T12:52:59.978Z,4.70
2022-11-04T12:55:44.096Z,6.43
2022-11-04T12:58:35.459Z,4.95
2022-11-04T13:01:15.004Z,5.18
2022-11-04T13:03:53.078Z,4.45
2022-11-04T13:06:25.436Z,5.78
2022-11-04T13:08:59.022Z,5.38
2022-11-04T13:11:32.587Z,4.65
2022-11-04T13:14:08.210Z,4.40
2022-11-04T13:16:41.400Z,8.20
2022-11-04T13:19:32.332Z,8.90
2022-11-04T13:22:07.212Z,4.20
2022-11-04T13:24:42.443Z,4.20
2022-11-04T13:27:20.355Z,5.35
2022-11-04T13:29:55.301Z,5.57
2022-11-04T13:32:31.664Z,3.95
2022-11-04T13:35:10.283Z,4.82
2022-11-04T13:37:44.795Z,5.80
2022-11-04T13:43:43.052Z,6.88
2022-11-04T13:46:25.143Z,4.35
2022-11-04T13:49:04.196Z,4.40
2022-11-04T13:51:43.399Z,3.70
2022-11-04T13:54:31.570Z,4.35
2022-11-04T13:57:10.440Z,6.97
2022-11-04T13:59:40.034Z,5.65
2022-11-04T14:02:44.076Z,4.65
2022-11-04T14:05:56.812Z,4.43
2022-11-04T14:08:26.866Z,4.18
2022-11-04T14:13:47.196Z,3.30
2022-11-04T14:16:42.505Z,3.00
2022-11-04T14:19:58.789Z,3.30
2022-11-04T14:22:47.806Z,3.85
2022-11-04T14:25:26.132Z,3.22
2022-11-04T14:27:57.137Z,2.83
2022-11-04T14:30:53.995Z,3.70
2022-11-04T14:36:35.772Z,4.43
2022-11-04T14:44:55.831Z,3.92
2022-11-04T14:47:30.563Z,3.60
2022-11-04T14:50:13.761Z,3.20
2022-11-04T14:52:50.190Z,4.60
2022-11-04T14:55:37.897Z,8.05
2022-11-04T14:58:25.631Z,11.05
2022-11-04T15:01:00.072Z,9.98
2022-11-04T15:04:10.604Z,6.90
2022-11-04T15:09:23.781Z,6.18
2022-11-04T15:12:28.502Z,19.08
2022-11-04T15:15:00.125Z,7.07
2022-11-04T15:17:32.853Z,4.28
2022-11-04T15:20:04.745Z,3.47
2022-11-04T15:22:34.110Z,2.35
2022-11-04T15:25:05.834Z,3.08
2022-11-04T15:27:35.199Z,3.13
2022-11-04T15:33:19.823Z,3.40
2022-11-04T15:35:52.332Z,5.13
2022-11-04T15:38:21.037Z,4.10
2022-11-04T15:40:50.767Z,2.85
2022-11-04T15:43:18.465Z,3.03
2022-11-04T15:45:55.956Z,3.45
2022-11-04T15:48:31.428Z,3.72
2022-11-04T15:54:23.323Z,4.65
2022-11-04T15:56:55.374Z,3.92
2022-11-04T15:59:27.955Z,5.93
2022-11-04T16:01:57.085Z,4.25
2022-11-04T16:04:29.498Z,4.47
2022-11-04T16:07:22.797Z,6.95
2022-11-04T16:09:53.527Z,8.52
2022-11-04T16:12:30.807Z,7.05
2022-11-04T16:15:00.914Z,5.47
2022-11-04T16:17:30.570Z,4.30
2022-11-04T16:20:04.658Z,5.00
2022-11-04T16:22:37.073Z,10.38
2022-11-04T16:25:21.063Z,5.38
2022-11-04T16:27:49.816Z,5.00
2022-11-04T16:30:21.497Z,6.70
2022-11-04T16:32:51.534Z,4.80
2022-11-04T16:35:24.205Z,3.60
2022-11-04T16:37:53.001Z,4.72
2022-11-04T16:40:24.387Z,4.88
2022-11-04T16:42:54.163Z,6.40
2022-11-04T16:45:27.429Z,6.97
2022-11-04T16:47:56.158Z,10.73
2022-11-04T16:50:45.612Z,82.70
2022-11-04T16:53:14.415Z,18.45
2022-11-04T16:55:44.972Z,5.35
2022-11-04T16:58:19.550Z,3.83
2022-11-04T17:00:47.751Z,7.80
2022-11-04T17:03:21.987Z,11.57
2022-11-04T17:05:54.128Z,10.57
2022-11-04T17:08:23.045Z,15.18
2022-11-04T17:10:51.608Z,13.90
2022-11-04T17:13:20.157Z,11.40
2022-11-04T17:15:48.859Z,13.68
2022-11-04T17:18:19.414Z,17.42
2022-11-04T17:20:52.770Z,11.35
2022-11-04T17:23:23.360Z,13.68
2022-11-04T17:25:52.779Z,13.60
2022-11-04T17:28:21.404Z,14.77
2022-11-04T17:30:50.408Z,29.83
2022-11-04T17:33:20.235Z,38.38
2022-11-04T17:35:51.322Z,34.45
2022-11-04T17:38:21.867Z,10.00
2022-11-04T17:41:07.707Z,7.72
2022-11-04T17:43:53.726Z,8.93
2022-11-04T17:46:38.886Z,7.45
2022-11-04T17:49:13.783Z,8.13
2022-11-04T17:51:44.139Z,6.43
2022-11-04T17:54:14.422Z,6.80
2022-11-04T17:56:43.729Z,4.80
2022-11-04T17:59:13.502Z,9.15
2022-11-04T18:01:43.224Z,15.23
2022-11-04T18:04:15.963Z,15.83
2022-11-04T18:06:44.703Z,8.00
2022-11-04T18:09:15.484Z,8.15
2022-11-04T18:12:02.385Z,53.58
2022-11-04T18:14:30.672Z,79.45
2022-11-04T18:16:59.839Z,43.15
2022-11-04T18:19:28.834Z,22.83
2022-11-04T18:21:59.506Z,16.05
2022-11-04T18:24:29.741Z,13.27
2022-11-04T18:26:59.205Z,19.25
2022-11-04T18:29:28.106Z,18.40
2022-11-04T18:31:56.599Z,21.65
2022-11-04T18:34:24.862Z,13.98
2022-11-04T18:36:53.079Z,8.98
2022-11-04T18:39:21.334Z,13.57
2022-11-04T18:41:50.962Z,13.60
2022-11-04T18:44:21.258Z,17.27
2022-11-04T18:46:50.396Z,12.73
2022-11-04T18:49:20.605Z,22.83
2022-11-04T18:51:48.790Z,23.88
2022-11-04T18:54:17.507Z,25.13
2022-11-04T18:56:45.736Z,19.45
2022-11-04T18:59:16.266Z,14.65
2022-11-04T19:04:14.395Z,12.68
2022-11-04T19:06:44.655Z,14.15
2022-11-04T19:12:20.710Z,15.68
2022-11-04T19:14:50.484Z,20.52
2022-11-04T19:17:19.082Z,18.13
2022-11-04T19:19:48.029Z,28.58
2022-11-04T19:22:16.414Z,38.00
2022-11-04T19:24:50.656Z,33.88
2022-11-04T19:27:21.505Z,43.03
2022-11-04T19:29:52.125Z,41.45
2022-11-04T19:32:20.419Z,30.27
2022-11-04T19:34:49.633Z,29.58
2022-11-04T19:37:18.237Z,24.88
2022-11-04T19:39:46.658Z,22.63
2022-11-04T19:42:34.517Z,23.13
2022-11-04T19:45:04.910Z,18.40
2022-11-04T19:47:33.437Z,17.55
2022-11-04T19:50:02.331Z,16.17
2022-11-04T19:52:32.704Z,16.42
2022-11-04T19:55:01.667Z,16.88
2022-11-04T19:57:31.732Z,17.23
2022-11-04T20:00:00.659Z,14.35
2022-11-04T20:02:30.877Z,21.92
2022-11-04T20:04:59.255Z,19.05
2022-11-04T20:07:28.164Z,17.15
2022-11-04T20:09:56.492Z,18.52
2022-11-04T20:12:42.447Z,16.33
2022-11-04T20:15:11.528Z,16.20
2022-11-04T20:17:41.696Z,15.93
2022-11-04T20:20:10.139Z,21.45
2022-11-04T20:22:39.613Z,19.67
2022-11-04T20:25:11.370Z,18.92
2022-11-04T20:27:40.511Z,18.73
2022-11-04T20:30:09.518Z,15.27
2022-11-04T20:32:38.554Z,11.98
2022-11-04T20:35:09.530Z,14.48
2022-11-04T20:37:38.543Z,16.30
2022-11-04T20:40:08.673Z,15.45
2022-11-04T20:42:38.260Z,17.40
2022-11-04T20:45:08.835Z,18.25
2022-11-04T20:47:38.089Z,15.32
2022-11-04T20:50:09.395Z,14.20
2022-11-04T20:52:38.016Z,15.75
2022-11-04T20:55:08.180Z,15.68
2022-11-04T20:57:36.417Z,14.02
2022-11-04T21:00:09.322Z,13.00
2022-11-04T21:02:37.596Z,9.75
2022-11-04T21:05:09.371Z,10.40
2022-11-04T21:07:38.339Z,11.35
2022-11-04T21:10:07.117Z,14.15
2022-11-04T21:12:35.914Z,12.45
2022-11-04T21:15:25.083Z,13.80
2022-11-04T21:17:53.520Z,14.20
2022-11-04T21:20:23.131Z,13.48
2022-11-04T21:22:53.402Z,12.13
2022-11-04T21:25:23.175Z,14.75
2022-11-04T21:27:52.444Z,15.20
2022-11-04T21:30:21.233Z,12.02
2022-11-04T21:32:49.495Z,11.50
2022-11-04T21:35:18.412Z,10.77
2022-11-04T21:37:48.092Z,10.93
2022-11-04T21:40:17.432Z,11.68
2022-11-04T21:42:46.180Z,10.13
2022-11-04T21:45:14.840Z,11.52
2022-11-04T21:47:43.694Z,10.23
2022-11-04T21:50:17.718Z,11.82
2022-11-04T21:52:48.097Z,10.07
2022-11-04T21:55:16.566Z,10.02
2022-11-04T21:57:45.191Z,9.02
2022-11-04T22:00:15.211Z,9.63
2022-11-04T22:02:47.570Z,7.82
2022-11-04T22:05:16.723Z,16.45
2022-11-04T22:08:04.151Z,10.25
2022-11-04T22:10:37.735Z,9.20
2022-11-04T22:13:06.519Z,7.28
2022-11-04T22:15:52.790Z,10.45
2022-11-04T22:18:21.370Z,8.43
2022-11-04T22:20:49.659Z,6.82
2022-11-04T22:23:18.366Z,7.13
2022-11-04T22:25:50.263Z,7.22
2022-11-04T22:28:19.548Z,7.78
2022-11-04T22:30:47.815Z,6.53
2022-11-04T22:33:16.263Z,7.57
2022-11-04T22:35:47.134Z,7.13
2022-11-04T22:38:15.855Z,7.10
2022-11-04T22:40:44.317Z,7.25
2022-11-04T22:43:14.263Z,6.65
2022-11-04T22:45:42.814Z,6.35
2022-11-04T22:48:11.015Z,8.32
2022-11-04T22:50:39.886Z,7.40
2022-11-04T22:53:08.657Z,7.15
2022-11-04T22:55:37.859Z,12.23
2022-11-04T22:58:06.231Z,6.40
2022-11-04T23:00:36.579Z,6.50
2022-11-04T23:03:05.460Z,7.40
2022-11-04T23:05:34.102Z,7.78
2022-11-04T23:08:03.718Z,6.43
2022-11-04T23:10:50.032Z,6.45
2022-11-04T23:13:36.180Z,7.78
2022-11-04T23:16:23.856Z,6.97
2022-11-04T23:18:53.069Z,6.75
2022-11-04T23:21:41.098Z,7.95
2022-11-04T23:24:27.169Z,8.18
2022-11-04T23:26:58.672Z,6.63
2022-11-04T23:29:49.956Z,6.80
2022-11-04T23:32:23.230Z,8.52
2022-11-04T23:35:13.246Z,9.25
2022-11-04T23:37:41.673Z,8.85
2022-11-04T23:40:11.007Z,10.75
2022-11-04T23:42:40.075Z,7.55
2022-11-04T23:45:27.426Z,7.88
2022-11-04T23:48:15.660Z,6.70
2022-11-04T23:51:02.015Z,7.20
2022-11-04T23:53:48.109Z,7.22
2022-11-04T23:56:34.292Z,5.30
2022-11-04T23:59:20.127Z,5.70
